Brusett, Montana
Current Conditions -  °F | °C
As of 11:53 AM on Friday 31 Oct 2014 (Local Time) from KGGW Reporting Station
Clear Clear  
Wind Chill: 38°   Ceiling: Unl
Heat Index: 46°   Visibility: 10mi
Dew Point: 32°   Wind: 22mph
Humidity: 58%   Direction: 140°SE
Pressure: 29.96"   Gusts: 31mph
Location:  47.43°N, 107.27°W
Report Text: KGGW 311753Z AUTO 14019G27KT 10SM CLR 08/00 A2996 RMK AO2 PK WND 15030/1717 SLP163 I669635962 T00780000 58026
Loading
Personal Weather Stations






























Interactive Weather Map
Tropical Storm Tracking
New forecast layout! Learn more

10-Day Weather Forecast

Advertisements
Track Severe Weather on mobile